Time;durP1;ratioP1;P1;durP2;ratioP2;P2;SDS_P1;SDS_P2;PMS_P1;PMS_P2;Temp;Humidity;BMP_temperature;BMP_pressure;BME280_temperature;BME280_humidity;BME280_pressure;Samples;Min_cycle;Max_cycle;Signal;HPM_P1;HPM_P2
2022/05/09 00:02:23;;;;;;;6.37;2.77;;;;;;;7.32;72.64;102987.75;5031786;28;20213;-68
2022/05/09 00:04:48;;;;;;;7.80;2.50;;;;;;;7.31;73.28;102985.09;5035897;28;20210;-68
2022/05/09 00:07:13;;;;;;;4.87;2.63;;;;;;;7.30;72.75;102986.78;5029601;28;20185;-68
2022/05/09 00:09:39;;;;;;;7.07;2.73;;;;;;;7.24;73.20;102986.34;5037702;28;20240;-68
2022/05/09 00:12:04;;;;;;;6.17;3.20;;;;;;;7.14;74.16;102981.44;5029497;28;20183;-69
2022/05/09 00:14:30;;;;;;;4.53;2.50;;;;;;;6.99;74.18;102993.13;5028784;28;20265;-68
2022/05/09 00:16:56;;;;;;;5.53;2.57;;;;;;;7.10;74.33;102994.72;5029162;28;20679;-69
2022/05/09 00:19:21;;;;;;;4.97;2.60;;;;;;;7.02;73.93;102984.81;5027748;28;20602;-69
2022/05/09 00:21:48;;;;;;;5.53;2.53;;;;;;;6.97;74.30;102981.97;5029917;28;20222;-69
2022/05/09 00:24:17;;;;;;;5.33;2.60;;;;;;;6.95;74.58;102988.59;5037528;28;20264;-69
2022/05/09 00:26:48;;;;;;;5.43;2.77;;;;;;;6.98;75.11;102990.47;5028918;28;20248;-69
2022/05/09 00:29:16;;;;;;;4.63;2.50;;;;;;;6.90;75.63;102981.44;5028106;28;20659;-69
2022/05/09 00:31:45;;;;;;;4.80;2.30;;;;;;;6.85;75.80;102981.13;5028932;28;20190;-69
2022/05/09 00:34:11;;;;;;;8.97;3.00;;;;;;;6.86;75.18;102987.97;5028896;28;20892;-69
2022/05/09 00:36:38;;;;;;;9.70;2.60;;;;;;;6.79;75.37;102988.34;5034210;28;20191;-68
2022/05/09 00:39:04;;;;;;;7.87;2.53;;;;;;;6.75;74.98;102991.47;5033612;28;20642;-69
2022/05/09 00:41:37;;;;;;;8.33;2.43;;;;;;;6.79;74.85;102990.00;5029069;28;20178;-69
2022/05/09 00:44:16;;;;;;;6.83;2.60;;;;;;;6.79;75.75;102988.34;5029346;28;20214;-69
2022/05/09 00:46:44;;;;;;;5.47;2.73;;;;;;;6.80;76.95;102989.22;5029435;28;20248;-69
2022/05/09 00:49:19;;;;;;;7.47;2.50;;;;;;;6.74;76.45;102983.72;5031551;28;20213;-69
2022/05/09 00:51:58;;;;;;;6.33;3.03;;;;;;;6.63;76.54;102984.66;5035143;28;20648;-69
2022/05/09 00:54:30;;;;;;;6.60;2.40;;;;;;;6.66;75.97;102989.94;5028811;28;20194;-69
2022/05/09 00:57:07;;;;;;;4.47;2.47;;;;;;;6.60;75.76;102987.88;5029164;28;20187;-68
2022/05/09 00:59:35;;;;;;;5.47;2.83;;;;;;;6.57;76.17;102991.84;5028837;28;20273;-69
2022/05/09 01:02:01;;;;;;;5.73;2.43;;;;;;;6.52;76.34;102999.16;5026017;28;20215;-69
2022/05/09 01:04:30;;;;;;;8.83;2.60;;;;;;;6.46;76.88;102997.84;5037907;28;20694;-69
2022/05/09 01:06:57;;;;;;;5.30;2.40;;;;;;;6.44;77.12;103001.97;5034763;28;20197;-69
2022/05/09 01:09:22;;;;;;;6.40;2.30;;;;;;;6.48;76.82;103004.81;5029206;28;20201;-69
2022/05/09 01:11:50;;;;;;;6.70;2.23;;;;;;;6.35;76.76;102997.09;5029278;28;20186;-69
2022/05/09 01:14:22;;;;;;;5.20;2.67;;;;;;;6.33;77.07;103002.84;5029231;28;20207;-69
2022/05/09 01:16:51;;;;;;;7.00;2.73;;;;;;;6.32;77.88;103003.63;5033379;28;20195;-69
2022/05/09 01:19:26;;;;;;;7.40;3.07;;;;;;;6.31;77.80;103005.28;5032909;28;20269;-68
2022/05/09 01:21:51;;;;;;;7.90;3.10;;;;;;;6.30;77.40;103000.06;5028541;28;20701;-69
2022/05/09 01:24:21;;;;;;;7.27;2.50;;;;;;;6.25;77.28;103003.94;5032545;28;20202;-68
2022/05/09 01:26:47;;;;;;;5.83;2.67;;;;;;;6.25;77.25;102992.13;5040787;28;20201;-68
2022/05/09 01:29:40;;;;;;;7.77;2.77;;;;;;;6.19;77.12;103001.88;5029544;28;20182;-69
2022/05/09 01:32:09;;;;;;;5.90;2.70;;;;;;;6.16;78.13;102999.09;5037762;28;20260;-68
2022/05/09 01:34:37;;;;;;;5.40;2.20;;;;;;;6.07;78.50;102993.34;5039624;28;20202;-69
2022/05/09 01:37:05;;;;;;;9.93;3.33;;;;;;;6.11;78.41;102995.34;5032216;28;20244;-69
2022/05/09 01:39:32;;;;;;;7.40;2.50;;;;;;;6.11;78.74;102995.34;5031738;28;20192;-68
2022/05/09 01:42:04;;;;;;;6.03;2.90;;;;;;;6.08;78.82;102987.50;5032320;28;20229;-69
2022/05/09 01:44:29;;;;;;;7.07;2.53;;;;;;;6.08;78.97;102994.25;5031818;28;20218;-69
2022/05/09 01:49:40;;;;;;;10.03;2.80;;;;;;;6.03;80.26;102993.91;5031776;28;20254;-69
2022/05/09 01:52:07;;;;;;;9.20;2.87;;;;;;;5.99;80.59;102991.06;5031998;28;20170;-69
2022/05/09 01:54:33;;;;;;;9.40;3.10;;;;;;;5.99;80.33;102993.59;5031725;28;20234;-69
2022/05/09 01:56:59;;;;;;;6.17;2.50;;;;;;;5.97;80.91;102993.47;5030371;28;21008;-69
2022/05/09 01:59:24;;;;;;;8.43;3.10;;;;;;;5.94;80.08;102987.31;5038039;28;20186;-69
2022/05/09 02:01:56;;;;;;;7.07;2.87;;;;;;;5.91;79.71;102995.59;5051496;28;20658;-68
2022/05/09 02:04:23;;;;;;;7.27;2.70;;;;;;;5.85;80.09;103000.22;5051977;28;20259;-69
2022/05/09 02:06:48;;;;;;;8.43;2.63;;;;;;;5.85;80.21;102997.66;5051277;28;20239;-68
2022/05/09 02:09:14;;;;;;;6.87;2.50;;;;;;;5.84;80.75;103003.53;5051901;28;20193;-68
2022/05/09 02:11:40;;;;;;;7.60;2.57;;;;;;;5.74;80.73;102998.53;5043500;28;20205;-69
2022/05/09 02:14:06;;;;;;;8.73;3.07;;;;;;;5.70;80.63;103001.59;5040458;28;20217;-68
2022/05/09 02:16:32;;;;;;;5.60;2.60;;;;;;;5.72;80.21;103010.25;5031221;28;20644;-69
2022/05/09 02:18:57;;;;;;;7.87;2.47;;;;;;;5.72;80.26;103007.69;5030709;28;20190;-69
2022/05/09 02:21:23;;;;;;;5.97;2.23;;;;;;;5.68;80.23;103007.34;5039504;28;20180;-68
2022/05/09 02:23:48;;;;;;;8.87;3.17;;;;;;;5.70;80.78;103009.22;5033858;28;20604;-68
2022/05/09 02:26:14;;;;;;;6.33;2.37;;;;;;;5.66;81.25;103008.91;5031407;28;20218;-68
2022/05/09 02:28:39;;;;;;;5.33;2.40;;;;;;;5.65;81.00;103004.56;5035328;28;20639;-68
2022/05/09 02:31:05;;;;;;;7.90;2.77;;;;;;;5.68;82.05;103004.81;5035048;28;20583;-69
2022/05/09 02:33:31;;;;;;;7.07;3.03;;;;;;;5.75;82.25;103009.59;5030899;28;20206;-69
2022/05/09 02:35:56;;;;;;;8.50;2.90;;;;;;;5.70;81.41;103011.78;5030427;28;20253;-68
2022/05/09 02:38:24;;;;;;;6.10;2.90;;;;;;;5.67;81.26;103011.53;5030530;28;20190;-69
2022/05/09 02:40:52;;;;;;;7.97;2.90;;;;;;;5.65;81.73;103012.19;5030764;28;20715;-69
2022/05/09 02:43:18;;;;;;;7.97;2.87;;;;;;;5.55;81.22;103009.75;5035572;28;20313;-68
2022/05/09 02:45:43;;;;;;;6.97;2.63;;;;;;;5.35;80.76;103013.34;5035055;28;20218;-69
2022/05/09 02:48:10;;;;;;;10.03;3.13;;;;;;;5.36;80.37;103021.88;5034293;28;20256;-68
2022/05/09 02:50:36;;;;;;;6.03;2.70;;;;;;;5.31;80.46;103020.63;5037761;28;20648;-68
2022/05/09 02:53:01;;;;;;;6.43;3.20;;;;;;;5.22;80.68;103020.84;5029479;28;20221;-69
2022/05/09 02:55:26;;;;;;;6.90;3.00;;;;;;;5.22;80.27;103028.47;5028435;28;20191;-69
2022/05/09 02:57:52;;;;;;;5.27;2.93;;;;;;;5.28;80.61;103023.81;5038222;28;20205;-69
2022/05/09 03:00:26;;;;;;;7.03;2.77;;;;;;;5.20;80.41;103024.91;5050771;28;20193;-68
2022/05/09 03:05:39;;;;;;;7.43;3.33;;;;;;;5.16;79.65;103025.44;5050480;28;20208;-70
2022/05/09 03:08:05;;;;;;;8.70;3.60;;;;;;;5.16;79.43;103022.88;5050109;28;20272;-69
2022/05/09 03:10:31;;;;;;;7.70;2.70;;;;;;;5.13;79.74;103016.72;5045031;28;20269;-69
2022/05/09 03:12:59;;;;;;;10.17;3.70;;;;;;;5.12;79.70;103020.03;5038173;28;20202;-68
2022/05/09 03:15:25;;;;;;;10.97;3.47;;;;;;;5.18;80.73;103023.91;5032416;28;20192;-71
2022/05/09 03:17:51;;;;;;;6.63;3.93;;;;;;;5.15;80.86;103027.88;5038306;28;20178;-68
2022/05/09 03:20:21;;;;;;;7.03;3.50;;;;;;;5.14;80.72;103021.00;5047371;28;20259;-68
2022/05/09 03:22:48;;;;;;;9.87;3.20;;;;;;;5.10;81.13;103022.44;5033735;28;20223;-68
2022/05/09 03:25:13;;;;;;;5.60;3.07;;;;;;;5.11;80.91;103023.34;5018595;28;20660;-68
2022/05/09 03:27:38;;;;;;;9.47;3.50;;;;;;;5.08;81.35;103025.63;5010465;28;20198;-68
2022/05/09 03:30:06;;;;;;;7.30;3.20;;;;;;;5.09;80.98;103017.25;5010408;28;20194;-69
2022/05/09 03:32:31;;;;;;;8.80;3.57;;;;;;;5.07;81.53;103014.56;5037700;28;20181;-69
2022/05/09 03:34:56;;;;;;;9.20;3.73;;;;;;;5.02;82.11;103015.03;5043498;28;20772;-69
2022/05/09 03:37:21;;;;;;;9.50;3.77;;;;;;;5.03;82.71;103017.69;5010347;28;20186;-69
2022/05/09 03:39:47;;;;;;;9.90;3.77;;;;;;;4.98;81.85;103013.00;5009654;28;20191;-69
2022/05/09 03:42:12;;;;;;;11.10;4.07;;;;;;;4.89;82.12;103010.66;5010302;28;20211;-69
2022/05/09 03:44:37;;;;;;;12.63;3.30;;;;;;;4.90;81.79;103011.53;5010363;28;20215;-69
2022/05/09 03:47:05;;;;;;;12.53;3.80;;;;;;;4.87;83.12;103002.03;5009473;28;20191;-69
2022/05/09 03:49:30;;;;;;;8.10;3.60;;;;;;;4.89;82.50;103003.06;5022803;28;20204;-69
2022/05/09 03:51:56;;;;;;;7.80;3.47;;;;;;;4.89;82.28;103002.16;5029470;28;20185;-69
2022/05/09 03:54:23;;;;;;;8.83;3.43;;;;;;;4.85;82.26;103003.59;5029755;28;20763;-69
2022/05/09 03:56:48;;;;;;;10.83;4.13;;;;;;;4.90;83.21;103017.50;5029406;28;20183;-69
2022/05/09 03:59:13;;;;;;;8.70;3.67;;;;;;;4.88;82.82;103011.41;5028609;28;20584;-69
2022/05/09 04:01:39;;;;;;;8.80;3.90;;;;;;;4.94;82.15;103008.47;5029535;28;20710;-69
2022/05/09 04:04:04;;;;;;;7.23;3.73;;;;;;;4.90;82.44;103016.59;5029088;28;20673;-69
2022/05/09 04:06:30;;;;;;;5.23;3.40;;;;;;;4.94;82.46;103008.47;5029770;28;20214;-69
2022/05/09 04:08:57;;;;;;;10.07;3.73;;;;;;;4.96;81.45;103010.34;5029204;28;20182;-69
2022/05/09 04:11:22;;;;;;;8.07;3.23;;;;;;;4.94;83.05;103014.44;5029525;28;20221;-69
2022/05/09 04:13:48;;;;;;;10.27;3.97;;;;;;;4.98;82.45;103008.78;5029475;28;20210;-69
2022/05/09 04:19:00;;;;;;;10.07;3.70;;;;;;;5.04;82.75;103010.94;5029291;28;20198;-69
2022/05/09 04:21:26;;;;;;;7.47;3.40;;;;;;;5.12;81.90;103014.94;5029229;28;20193;-70
2022/05/09 04:23:56;;;;;;;9.20;3.53;;;;;;;5.15;82.56;103008.44;5029491;28;20207;-69
2022/05/09 04:26:23;;;;;;;8.20;3.40;;;;;;;5.15;82.71;103005.91;5035297;28;20646;-69
2022/05/09 04:28:49;;;;;;;6.97;3.90;;;;;;;5.21;82.83;103008.88;5033817;28;20190;-69
2022/05/09 04:31:14;;;;;;;8.97;3.43;;;;;;;5.32;82.85;103012.25;5027723;28;20735;-70
2022/05/09 04:33:41;;;;;;;8.37;3.20;;;;;;;5.34;83.47;103011.59;5017717;28;20210;-69
2022/05/09 04:36:07;;;;;;;7.33;3.20;;;;;;;5.45;83.27;103003.13;5009263;28;20604;-69
2022/05/09 04:38:33;;;;;;;9.00;3.63;;;;;;;5.55;83.12;103010.66;5009870;28;20187;-69
2022/05/09 04:40:58;;;;;;;8.97;3.53;;;;;;;5.64;83.76;103012.97;5009854;28;20210;-69
2022/05/09 04:43:28;;;;;;;15.13;3.70;;;;;;;5.78;83.33;103002.16;5008947;28;20642;-70
2022/05/09 04:45:54;;;;;;;8.83;3.50;;;;;;;5.85;83.18;103005.28;5009492;28;20183;-70
2022/05/09 04:48:21;;;;;;;7.57;3.90;;;;;;;5.97;82.73;102998.56;5009188;28;20210;-70
2022/05/09 04:50:46;;;;;;;13.03;4.37;;;;;;;6.09;83.05;103007.09;5009975;28;20191;-69
2022/05/09 04:53:12;;;;;;;9.57;3.83;;;;;;;6.19;82.82;103001.88;5009010;28;20203;-69
2022/05/09 04:55:39;;;;;;;13.47;4.50;;;;;;;6.32;83.14;103001.09;5009384;28;20183;-69
2022/05/09 04:58:05;;;;;;;10.47;3.93;;;;;;;6.44;82.11;103000.28;5009246;28;20188;-69
2022/05/09 05:00:31;;;;;;;6.03;3.00;;;;;;;6.59;82.54;103005.56;5018145;28;20197;-68
2022/05/09 05:02:57;;;;;;;7.67;3.10;;;;;;;6.74;82.74;102994.81;5032861;28;20742;-70
2022/05/09 05:05:24;;;;;;;8.40;3.20;;;;;;;6.91;82.62;103001.91;5032643;28;20186;-70
2022/05/09 05:07:51;;;;;;;9.37;3.47;;;;;;;7.04;82.26;103008.75;5019619;28;20281;-69
2022/05/09 05:10:17;;;;;;;9.63;3.33;;;;;;;7.22;82.21;102997.22;5014714;28;20197;-69
2022/05/09 05:12:42;;;;;;;5.73;2.80;;;;;;;7.39;82.05;102997.59;5018242;28;20198;-68
2022/05/09 05:15:08;;;;;;;10.83;3.40;;;;;;;7.58;81.82;102998.03;5022651;28;20178;-68
2022/05/09 05:17:36;;;;;;;8.90;3.20;;;;;;;7.76;80.71;103001.78;5022651;28;20214;-69
2022/05/09 05:20:04;;;;;;;8.03;3.53;;;;;;;7.95;79.21;102994.53;5018592;28;20187;-69
2022/05/09 05:22:34;;;;;;;7.73;3.10;;;;;;;8.13;78.43;102998.25;5022689;28;20310;-71
2022/05/09 05:24:59;;;;;;;9.27;2.90;;;;;;;8.37;77.84;103004.94;5023650;28;20191;-69
2022/05/09 05:27:28;;;;;;;12.67;3.20;;;;;;;8.54;76.77;103004.31;5042086;28;20183;-71
2022/05/09 05:29:57;;;;;;;13.80;3.30;;;;;;;8.70;75.92;102996.81;5025170;28;20676;-69
2022/05/09 05:32:27;;;;;;;8.17;3.13;;;;;;;8.91;75.59;103000.69;5026586;28;20182;-70
2022/05/09 05:34:53;;;;;;;11.67;3.37;;;;;;;9.09;75.01;102999.22;5031949;28;20226;-72
2022/05/09 05:37:19;;;;;;;8.90;3.00;;;;;;;9.27;73.98;102995.19;5028834;28;20813;-71
2022/05/09 05:39:46;;;;;;;11.57;3.10;;;;;;;9.42;72.51;102997.75;5020860;28;20280;-70
2022/05/09 05:42:14;;;;;;;8.60;2.80;;;;;;;9.63;72.04;102994.78;5021332;28;20219;-70
2022/05/09 05:44:40;;;;;;;10.33;2.60;;;;;;;9.83;70.42;102994.25;5020474;28;20210;-72
2022/05/09 05:47:08;;;;;;;11.70;2.97;;;;;;;10.01;71.04;102997.84;5022439;28;20544;-70
2022/05/09 05:49:35;;;;;;;10.23;2.70;;;;;;;10.14;69.38;102991.75;5007725;28;20226;-69
2022/05/09 05:52:03;;;;;;;9.90;3.43;;;;;;;10.25;68.21;102988.09;5025929;28;20217;-70
2022/05/09 05:54:34;;;;;;;9.03;3.13;;;;;;;10.45;68.45;102988.41;5022280;28;20195;-70
2022/05/09 05:57:01;;;;;;;8.40;2.80;;;;;;;10.54;68.01;102994.00;5019229;28;20199;-71
2022/05/09 05:59:26;;;;;;;14.83;3.30;;;;;;;10.64;67.10;102988.59;5021786;28;20193;-72
2022/05/09 06:01:54;;;;;;;8.77;3.07;;;;;;;10.73;66.93;102983.94;5029827;28;20202;-71
2022/05/09 06:04:20;;;;;;;15.13;3.27;;;;;;;10.86;66.82;102985.47;5031843;28;20210;-70
2022/05/09 06:06:48;;;;;;;9.13;3.13;;;;;;;11.07;67.31;102989.16;5030204;28;20259;-70
2022/05/09 06:09:13;;;;;;;4.60;2.60;;;;;;;11.24;65.14;102988.34;5031455;28;20678;-70
2022/05/09 06:11:40;;;;;;;8.80;2.70;;;;;;;11.43;65.05;102984.22;5030896;28;20278;-70
2022/05/09 06:14:07;;;;;;;9.93;2.40;;;;;;;11.69;65.40;102982.97;5031154;28;20217;-71
2022/05/09 06:16:32;;;;;;;8.60;3.20;;;;;;;11.73;64.50;102983.22;5020807;28;20194;-70
2022/05/09 06:18:59;;;;;;;11.60;2.60;;;;;;;11.91;65.05;102978.97;5019989;28;20190;-71
2022/05/09 06:21:25;;;;;;;8.13;2.50;;;;;;;11.93;64.53;102984.19;5020082;28;20227;-70
2022/05/09 06:23:50;;;;;;;9.63;3.10;;;;;;;11.78;63.96;102991.13;5020640;28;20855;-70
2022/05/09 06:26:15;;;;;;;10.13;2.90;;;;;;;11.71;64.22;102992.50;5021808;28;20187;-71
2022/05/09 06:28:41;;;;;;;10.93;3.00;;;;;;;12.05;63.48;102989.88;5020852;28;20268;-72
2022/05/09 06:31:07;;;;;;;10.73;3.10;;;;;;;12.17;62.33;102990.47;5021439;28;20219;-71
2022/05/09 06:33:33;;;;;;;10.23;3.00;;;;;;;12.24;62.00;102985.69;5020836;28;20240;-72
2022/05/09 06:35:59;;;;;;;10.30;3.07;;;;;;;12.34;62.75;102987.88;5020098;28;20179;-71
2022/05/09 06:38:27;;;;;;;11.03;3.07;;;;;;;12.51;61.93;102981.84;5019854;28;20530;-71
2022/05/09 06:40:53;;;;;;;9.33;3.57;;;;;;;12.27;62.00;102982.41;5015577;28;20202;-71
2022/05/09 06:43:19;;;;;;;9.40;3.13;;;;;;;12.38;62.59;102994.03;5018705;28;20739;-70
2022/05/09 06:45:45;;;;;;;11.27;3.30;;;;;;;12.72;61.71;102992.22;5029794;28;20281;-70
2022/05/09 06:48:10;;;;;;;7.30;3.20;;;;;;;12.76;61.80;102978.69;5030044;28;20210;-70
2022/05/09 06:50:38;;;;;;;10.10;3.67;;;;;;;12.88;61.48;102973.22;5011488;28;20664;-69
2022/05/09 06:53:07;;;;;;;13.93;3.60;;;;;;;13.01;61.81;102973.84;5010122;28;20711;-72
2022/05/09 06:55:33;;;;;;;8.77;3.13;;;;;;;13.17;61.94;102977.97;5011107;28;20675;-73
2022/05/09 06:57:58;;;;;;;15.50;3.73;;;;;;;13.52;61.23;102973.50;5010477;28;20195;-71
2022/05/09 07:00:25;;;;;;;14.80;3.20;;;;;;;13.22;61.67;102969.59;5013505;28;20273;-71
2022/05/09 07:02:51;;;;;;;9.33;3.40;;;;;;;13.47;61.34;102974.09;5017819;28;20214;-70
2022/05/09 07:05:19;;;;;;;9.77;3.73;;;;;;;13.55;61.20;102975.31;5019576;28;20183;-71
2022/05/09 07:07:45;;;;;;;8.37;3.23;;;;;;;13.57;61.12;102966.84;5021903;28;20669;-71
2022/05/09 07:10:13;;;;;;;14.20;3.83;;;;;;;13.76;60.87;102973.63;5020257;28;20225;-71
2022/05/09 07:12:43;;;;;;;12.80;3.43;;;;;;;14.06;60.01;102961.94;5023988;28;20189;-71
2022/05/09 07:15:09;;;;;;;14.00;3.70;;;;;;;14.20;59.38;102958.22;5029874;28;20732;-71
2022/05/09 07:17:35;;;;;;;16.13;3.60;;;;;;;14.24;59.44;102967.84;5030340;28;20200;-72
2022/05/09 07:20:00;;;;;;;15.63;3.73;;;;;;;14.15;59.28;102967.47;5030415;28;20277;-73
2022/05/09 07:22:25;;;;;;;11.43;3.20;;;;;;;14.45;59.75;102960.97;5028264;28;20301;-69
2022/05/09 07:24:51;;;;;;;11.87;3.57;;;;;;;14.50;58.19;102954.28;5028764;28;20294;-71
2022/05/09 07:27:17;;;;;;;13.60;3.80;;;;;;;14.43;58.79;102967.72;5041772;28;20534;-71
2022/05/09 07:29:42;;;;;;;10.33;3.30;;;;;;;14.53;57.83;102960.41;5030277;28;20702;-71
2022/05/09 07:32:08;;;;;;;10.80;3.77;;;;;;;14.74;56.83;102960.31;5028178;28;20190;-70
2022/05/09 07:34:33;;;;;;;11.67;3.53;;;;;;;15.16;56.08;102955.00;5030208;28;20325;-71
2022/05/09 07:36:58;;;;;;;12.27;3.30;;;;;;;15.60;55.59;102956.50;5023763;28;20214;-72
2022/05/09 07:39:24;;;;;;;12.40;3.00;;;;;;;15.59;54.95;102954.75;5018090;28;20238;-72
2022/05/09 07:41:49;;;;;;;13.30;3.80;;;;;;;15.55;54.39;102952.88;5019053;28;20203;-72
2022/05/09 07:44:15;;;;;;;11.83;3.40;;;;;;;15.27;54.26;102947.59;5015577;28;20214;-71
2022/05/09 07:46:40;;;;;;;14.17;3.20;;;;;;;15.69;53.08;102952.53;5029618;28;20190;-70
2022/05/09 07:49:05;;;;;;;11.27;3.03;;;;;;;16.09;52.04;102955.53;5029346;28;20197;-73
2022/05/09 07:51:31;;;;;;;14.83;3.43;;;;;;;15.86;51.91;102953.06;5029789;28;20186;-74
2022/05/09 07:53:56;;;;;;;10.50;3.00;;;;;;;15.74;52.37;102955.28;5029628;28;20210;-73
2022/05/09 07:56:22;;;;;;;10.53;3.50;;;;;;;16.09;51.03;102959.81;5029194;28;20541;-73
2022/05/09 07:58:47;;;;;;;9.00;2.97;;;;;;;15.78;50.14;102954.50;5029751;28;20233;-74
2022/05/09 08:01:12;;;;;;;7.50;3.10;;;;;;;16.54;50.88;102958.66;5029281;28;20222;-73
2022/05/09 08:03:38;;;;;;;11.40;2.63;;;;;;;16.89;48.66;102944.97;5028359;28;20311;-73
2022/05/09 08:06:05;;;;;;;8.27;2.63;;;;;;;17.30;48.88;102942.66;5029421;28;20648;-74
2022/05/09 08:08:32;;;;;;;8.23;2.47;;;;;;;16.48;46.55;102946.41;5029375;28;20268;-73
2022/05/09 08:10:59;;;;;;;8.13;3.00;;;;;;;16.09;48.17;102944.31;5029678;28;20193;-74
2022/05/09 08:13:28;;;;;;;5.50;2.30;;;;;;;16.56;48.02;102941.44;5028845;28;20260;-75
2022/05/09 08:15:53;;;;;;;8.63;2.30;;;;;;;16.97;44.77;102933.13;5029500;28;20643;-74
2022/05/09 08:18:23;;;;;;;10.37;3.13;;;;;;;17.56;47.60;102923.53;5020015;28;20310;-74
2022/05/09 08:20:50;;;;;;;9.37;2.83;;;;;;;17.21;44.83;102929.47;5019938;28;20969;-74
2022/05/09 08:23:18;;;;;;;6.27;2.50;;;;;;;17.57;44.79;102922.66;5016745;28;20333;-74
2022/05/09 08:25:47;;;;;;;7.07;2.27;;;;;;;17.10;44.66;102922.28;5023058;28;20220;-74
2022/05/09 08:28:14;;;;;;;9.33;2.70;;;;;;;17.24;45.29;102926.09;5031584;28;20680;-72
2022/05/09 08:30:41;;;;;;;6.57;1.97;;;;;;;17.98;43.73;102927.09;5018082;28;20198;-72
2022/05/09 08:33:15;;;;;;;7.17;2.63;;;;;;;17.94;44.17;102920.09;5010518;28;20261;-76
2022/05/09 08:35:42;;;;;;;9.93;2.40;;;;;;;17.93;43.13;102917.47;5021494;28;20279;-76
2022/05/09 08:38:08;;;;;;;8.37;2.67;;;;;;;17.97;42.43;102911.50;5025553;28;20584;-76
2022/05/09 08:40:37;;;;;;;9.30;2.73;;;;;;;18.31;43.19;102911.38;5033252;28;20190;-76
2022/05/09 08:43:27;;;;;;;6.33;2.43;;;;;;;18.32;42.16;102910.53;5021116;28;20657;-76
2022/05/09 08:46:04;;;;;;;8.17;2.47;;;;;;;18.89;42.42;102911.75;5013044;28;20249;-78
2022/05/09 08:48:38;;;;;;;6.60;2.20;;;;;;;19.05;42.17;102914.66;5012184;28;20230;-76
2022/05/09 08:51:19;;;;;;;8.13;2.37;;;;;;;18.80;42.50;102914.16;5014028;28;20206;-77
2022/05/09 08:53:45;;;;;;;5.63;2.47;;;;;;;18.47;43.13;102914.38;5014090;28;20229;-76
2022/05/09 08:56:15;;;;;;;9.53;2.63;;;;;;;19.00;42.22;102907.59;5018590;28;20277;-76
2022/05/09 08:58:51;;;;;;;10.43;3.10;;;;;;;19.44;42.41;102901.50;5031873;28;20572;-76
2022/05/09 09:01:27;;;;;;;9.10;2.77;;;;;;;18.72;44.31;102905.34;5032264;28;20240;-76
2022/05/09 09:04:03;;;;;;;10.03;2.73;;;;;;;19.32;42.54;102902.19;5032970;28;20217;-76
2022/05/09 09:06:47;;;;;;;6.67;2.67;;;;;;;19.59;41.98;102896.53;5014454;28;20233;-76
2022/05/09 09:09:39;;;;;;;8.10;2.40;;;;;;;19.76;42.65;102892.47;5013106;28;20194;-76
2022/05/09 09:12:33;;;;;;;7.20;2.90;;;;;;;18.55;43.85;102896.34;5012934;28;20206;-74
2022/05/09 09:15:16;;;;;;;8.60;3.07;;;;;;;19.01;43.23;102891.19;5012773;28;20617;-74
2022/05/09 09:17:54;;;;;;;8.63;3.00;;;;;;;19.26;43.57;102891.66;5013165;28;20187;-74
2022/05/09 09:20:31;;;;;;;9.03;2.60;;;;;;;19.83;41.62;102889.09;5012838;28;20187;-74
2022/05/09 09:23:05;;;;;;;8.77;2.90;;;;;;;19.51;41.64;102890.34;5012123;28;20218;-74
2022/05/09 09:25:39;;;;;;;5.53;2.50;;;;;;;19.76;41.74;102889.88;5022096;28;20205;-74
2022/05/09 09:28:15;;;;;;;8.90;2.67;;;;;;;20.26;41.22;102883.69;5040397;28;20195;-74
2022/05/09 09:30:43;;;;;;;7.77;3.13;;;;;;;19.66;42.45;102882.78;5031070;28;20217;-73
2022/05/09 09:33:12;;;;;;;9.40;2.70;;;;;;;19.31;42.43;102886.56;5032234;28;20257;-73
2022/05/09 09:36:02;;;;;;;8.43;3.43;;;;;;;19.00;42.94;102877.34;5032827;28;20206;-75
2022/05/09 09:38:36;;;;;;;8.80;3.00;;;;;;;19.91;42.10;102872.78;5029869;28;20175;-74
2022/05/09 09:41:15;;;;;;;8.67;2.77;;;;;;;20.34;42.11;102859.47;5012453;28;20267;-74
2022/05/09 09:43:41;;;;;;;13.80;3.30;;;;;;;21.03;40.37;102843.72;5011977;28;20211;-74
2022/05/09 09:46:07;;;;;;;7.73;2.83;;;;;;;21.24;40.06;102843.91;5010155;28;20199;-73
2022/05/09 09:48:34;;;;;;;8.90;2.63;;;;;;;21.35;39.98;102840.53;5026682;28;20183;-74
2022/05/09 09:51:07;;;;;;;9.87;2.73;;;;;;;21.71;39.66;102839.91;5011061;28;20266;-74
2022/05/09 09:54:01;;;;;;;10.47;2.93;;;;;;;21.12;38.67;102835.97;5010461;28;20568;-74
2022/05/09 09:56:31;;;;;;;8.97;2.73;;;;;;;20.91;39.50;102836.66;5018011;28;20566;-76
2022/05/09 09:59:16;;;;;;;11.10;2.50;;;;;;;21.59;39.77;102834.59;5033059;28;20746;-75
2022/05/09 10:01:43;;;;;;;9.30;3.03;;;;;;;21.77;40.82;102837.34;5040381;28;20181;-75
2022/05/09 10:04:24;;;;;;;10.10;2.67;;;;;;;21.86;38.70;102832.16;5031800;28;20195;-75
2022/05/09 10:06:56;;;;;;;6.30;2.80;;;;;;;22.12;37.97;102831.41;5029522;28;20225;-74
2022/05/09 10:09:21;;;;;;;9.00;3.10;;;;;;;22.08;37.98;102832.28;5033594;28;20683;-74
2022/05/09 10:11:47;;;;;;;7.50;2.50;;;;;;;21.41;37.96;102837.06;5047796;28;20186;-74
2022/05/09 10:14:31;;;;;;;7.30;2.37;;;;;;;21.90;36.80;102821.78;5017050;28;20740;-74
2022/05/09 10:17:15;;;;;;;9.17;3.00;;;;;;;21.32;35.86;102822.25;5012026;28;20183;-75
2022/05/09 10:19:41;;;;;;;6.97;2.80;;;;;;;20.07;39.17;102822.69;5011626;28;20637;-74
2022/05/09 10:25:03;;;;;;;10.43;2.97;;;;;;;21.92;37.47;102804.38;5010561;28;20211;-75
2022/05/09 10:27:31;;;;;;;9.23;2.80;;;;;;;21.71;37.08;102806.00;5012111;28;20179;-75
2022/05/09 10:30:00;;;;;;;7.13;2.83;;;;;;;22.31;39.27;102798.41;5011224;28;20809;-75
2022/05/09 10:32:43;;;;;;;9.63;3.33;;;;;;;22.47;36.46;102786.31;5011718;28;20193;-75
2022/05/09 10:35:20;;;;;;;18.07;2.97;;;;;;;22.92;34.72;102800.28;5011405;28;20179;-75
2022/05/09 10:38:34;;;;;;;9.30;2.83;;;;;;;21.95;32.25;102790.47;5010360;28;20181;-75
2022/05/09 10:41:09;;;;;;;8.43;2.10;;;;;;;22.15;31.53;102788.78;5028660;28;20202;-75
2022/05/09 10:43:52;;;;;;;7.43;2.40;;;;;;;22.84;33.32;102783.72;5012756;28;20246;-74
2022/05/09 10:46:20;;;;;;;10.73;2.87;;;;;;;22.61;35.28;102776.75;5010473;28;20190;-75
2022/05/09 10:48:54;;;;;;;11.23;2.90;;;;;;;22.69;36.04;102777.63;5031486;28;20194;-75
2022/05/09 10:51:28;;;;;;;6.40;2.30;;;;;;;23.20;36.76;102773.28;5031134;28;20224;-75
2022/05/09 10:54:03;;;;;;;9.87;2.67;;;;;;;23.62;34.44;102767.94;5035164;28;20298;-75
2022/05/09 10:56:44;;;;;;;9.63;2.90;;;;;;;23.32;34.26;102773.25;5046368;28;20185;-75
2022/05/09 10:59:24;;;;;;;9.60;3.07;;;;;;;23.31;35.39;102768.91;5048882;28;20231;-75
2022/05/09 11:01:56;;;;;;;5.40;2.40;;;;;;;23.70;34.50;102766.19;5050889;28;20182;-75
2022/05/09 11:04:23;;;;;;;8.73;2.70;;;;;;;23.84;32.20;102768.75;5030231;28;20301;-75
2022/05/09 11:07:24;;;;;;;7.60;2.67;;;;;;;23.94;27.29;102770.47;5011118;28;20214;-75
2022/05/09 11:10:01;;;;;;;4.60;2.10;;;;;;;23.44;28.18;102770.59;5011821;28;20836;-75
2022/05/09 11:12:51;;;;;;;7.93;2.73;;;;;;;23.37;29.63;102761.03;5011097;28;20707;-75
2022/05/09 11:15:27;;;;;;;6.40;2.50;;;;;;;22.75;29.53;102770.66;5009378;28;20258;-75
2022/05/09 11:18:11;;;;;;;6.97;2.30;;;;;;;22.52;29.76;102766.28;5011038;28;20183;-75
2022/05/09 11:21:02;;;;;;;7.40;2.40;;;;;;;23.00;29.07;102756.72;5011377;28;20191;-75
2022/05/09 11:23:49;;;;;;;5.83;2.33;;;;;;;23.42;30.67;102746.22;5010805;28;20241;-75
2022/05/09 11:26:37;;;;;;;5.67;2.03;;;;;;;23.36;29.59;102748.84;5010247;28;20188;-75
2022/05/09 11:29:20;;;;;;;6.13;2.13;;;;;;;23.95;28.87;102746.91;5010651;28;20183;-75
2022/05/09 11:32:05;;;;;;;7.73;2.60;;;;;;;23.92;28.20;102743.41;5010165;28;20195;-74
2022/05/09 11:34:55;;;;;;;4.63;2.10;;;;;;;22.98;29.23;102748.00;5010660;28;20214;-75
2022/05/09 11:37:29;;;;;;;7.40;2.10;;;;;;;23.63;30.92;102735.69;5010031;28;20183;-75
2022/05/09 11:40:02;;;;;;;4.53;1.80;;;;;;;23.91;28.01;102728.59;5023619;28;20225;-75
2022/05/09 11:45:58;;;;;;;5.23;1.87;;;;;;;24.05;28.27;102717.19;5050313;28;20182;-76
2022/05/09 11:48:37;;;;;;;7.13;2.43;;;;;;;23.76;28.70;102712.94;5049793;28;20931;-75
2022/05/09 11:51:31;;;;;;;5.43;2.47;;;;;;;24.22;28.48;102701.38;5049175;28;20643;-74
2022/05/09 11:54:02;;;;;;;5.73;2.33;;;;;;;24.36;27.99;102697.75;5049466;28;20205;-75